Time;durP1;ratioP1;P1;durP2;ratioP2;P2;SDS_P1;SDS_P2;PMS_P1;PMS_P2;Temp;Humidity;BMP_temperature;BMP_pressure;BME280_temperature;BME280_humidity;BME280_pressure;Samples;Min_cycle;Max_cycle;Signal;HPM_P1;HPM_P2
2022/08/20 00:02:13;;;;;;;0.00;0.00;;;18.20;99.90;226.50;231333.00;;;;5039833;28;20317;-72
2022/08/20 00:04:42;;;;;;;0.00;0.00;;;18.20;99.90;226.50;231333.00;;;;5038412;28;20260;-74
2022/08/20 00:07:11;;;;;;;0.00;0.00;;;18.20;99.90;226.50;231333.00;;;;5042218;28;20198;-74
2022/08/20 00:09:41;;;;;;;0.00;0.00;;;18.30;99.90;226.50;231333.00;;;;5051304;28;20225;-74
2022/08/20 00:12:11;;;;;;;0.00;0.00;;;18.30;99.90;226.50;231333.00;;;;5050641;28;20267;-74
2022/08/20 00:14:40;;;;;;;0.00;0.00;;;18.30;99.90;226.50;231333.00;;;;5051567;28;20201;-74
2022/08/20 00:17:08;;;;;;;0.00;0.00;;;18.30;99.90;226.50;231333.00;;;;5032938;28;20214;-74
2022/08/20 00:19:36;;;;;;;0.00;0.00;;;18.40;99.90;226.50;231333.00;;;;5051519;28;20194;-74
2022/08/20 00:22:05;;;;;;;0.00;0.00;;;18.40;99.90;226.50;231333.00;;;;5050483;28;20215;-74
2022/08/20 00:24:33;;;;;;;0.00;0.00;;;18.30;99.90;226.50;231333.00;;;;5044714;28;20229;-74
2022/08/20 00:27:02;;;;;;;0.00;0.00;;;18.20;99.90;226.50;231333.00;;;;5050345;28;20277;-73
2022/08/20 00:29:30;;;;;;;0.00;0.00;;;18.20;99.90;226.50;231333.00;;;;5030793;28;20195;-74
2022/08/20 00:31:59;;;;;;;0.00;0.00;;;18.10;99.90;226.50;231333.00;;;;5050505;28;20603;-73
2022/08/20 00:34:27;;;;;;;0.00;0.00;;;18.10;99.90;226.50;231333.00;;;;5051179;28;20202;-73
2022/08/20 00:36:55;;;;;;;0.00;0.00;;;18.10;99.90;226.50;231333.00;;;;5057416;28;20732;-73
2022/08/20 00:39:24;;;;;;;0.00;0.00;;;18.10;99.90;226.50;231333.00;;;;5051146;28;20202;-73
2022/08/20 00:41:52;;;;;;;0.00;0.00;;;18.10;99.90;226.50;231333.00;;;;5042561;28;20227;-73
2022/08/20 00:44:23;;;;;;;0.00;0.00;;;18.00;99.90;226.50;231333.00;;;;5031760;28;20219;-71
2022/08/20 00:46:53;;;;;;;0.00;0.00;;;17.90;99.90;226.50;231333.00;;;;5041763;28;20199;-70
2022/08/20 00:49:25;;;;;;;0.00;0.00;;;18.00;99.90;226.50;231333.00;;;;5030077;28;20203;-71
2022/08/20 00:51:58;;;;;;;0.00;0.00;;;17.90;99.90;226.50;231333.00;;;;5043822;28;20233;-72
2022/08/20 00:54:33;;;;;;;0.00;0.00;;;17.80;99.90;226.50;231333.00;;;;5045900;28;20214;-71
2022/08/20 00:57:07;;;;;;;0.00;0.00;;;17.80;99.90;226.50;231333.00;;;;5039577;28;20202;-72
2022/08/20 00:59:40;;;;;;;0.00;0.00;;;17.70;99.90;226.50;231333.00;;;;5049236;28;20214;-70
2022/08/20 01:02:17;;;;;;;0.00;0.00;;;17.80;99.90;226.50;231333.00;;;;5046743;28;20215;-70
2022/08/20 01:04:49;;;;;;;0.00;0.00;;;17.70;99.90;226.50;231333.00;;;;5035908;28;20263;-70
2022/08/20 01:07:19;;;;;;;0.00;0.00;;;17.70;99.90;226.50;231333.00;;;;5036983;28;20203;-70
2022/08/20 01:09:48;;;;;;;0.00;0.00;;;17.60;99.90;226.50;231333.00;;;;5034909;28;20206;-72
2022/08/20 01:12:29;;;;;;;0.00;0.00;;;17.60;99.90;226.50;231333.00;;;;5039373;28;20592;-69
2022/08/20 01:15:02;;;;;;;0.00;0.00;;;17.50;99.90;226.50;231333.00;;;;5044447;28;20198;-69
2022/08/20 01:17:35;;;;;;;0.00;0.00;;;17.50;99.90;226.50;231333.00;;;;5058250;28;20191;-69
2022/08/20 01:20:11;;;;;;;0.00;0.00;;;17.40;99.90;226.50;231333.00;;;;5048883;28;20200;-71
2022/08/20 01:25:43;;;;;;;0.00;0.00;;;17.40;99.90;226.50;231333.00;;;;5042323;28;20226;-72
2022/08/20 01:28:16;;;;;;;0.00;0.00;;;17.50;99.90;226.50;231333.00;;;;5041015;28;20218;-74
2022/08/20 01:30:44;;;;;;;0.00;0.00;;;17.40;99.90;226.50;231333.00;;;;5058629;28;20214;-70
2022/08/20 01:33:13;;;;;;;0.00;0.00;;;17.40;99.90;226.50;231333.00;;;;5041111;28;20657;-69
2022/08/20 01:35:42;;;;;;;0.00;0.00;;;17.30;99.90;226.50;231333.00;;;;5059686;28;20199;-69
2022/08/20 01:38:12;;;;;;;0.00;0.00;;;17.30;99.90;226.50;231333.00;;;;5059750;28;20191;-69
2022/08/20 01:41:03;;;;;;;0.00;0.00;;;17.30;99.90;226.50;231333.00;;;;5059731;28;20214;-71
2022/08/20 01:43:31;;;;;;;0.00;0.00;;;17.30;99.90;226.50;231333.00;;;;5041955;28;20191;-69
2022/08/20 01:46:04;;;;;;;0.00;0.00;;;17.40;99.90;226.50;231333.00;;;;5052353;28;20284;-69
2022/08/20 01:48:32;;;;;;;0.00;0.00;;;17.20;99.90;226.50;231333.00;;;;5045928;28;20197;-68
2022/08/20 01:51:08;;;;;;;0.00;0.00;;;17.20;99.90;226.50;231333.00;;;;5050529;28;20223;-70
2022/08/20 01:53:40;;;;;;;0.00;0.00;;;17.10;99.90;226.50;231333.00;;;;5033955;28;20204;-73
2022/08/20 01:56:14;;;;;;;0.00;0.00;;;17.10;99.90;226.50;231333.00;;;;5049153;28;20202;-73
2022/08/20 01:58:48;;;;;;;0.00;0.00;;;17.00;99.90;226.50;231333.00;;;;5052206;28;20224;-73
2022/08/20 02:01:28;;;;;;;0.00;0.00;;;17.00;99.90;226.50;231333.00;;;;5052664;28;20213;-73
2022/08/20 02:03:57;;;;;;;0.05;0.05;;;17.00;99.90;226.50;231333.00;;;;5053229;28;20870;-74
2022/08/20 02:06:26;;;;;;;0.00;0.00;;;17.10;99.90;226.50;231333.00;;;;5053064;28;20217;-73
2022/08/20 02:08:58;;;;;;;0.00;0.00;;;17.10;99.90;226.50;231333.00;;;;5051959;28;20191;-74
2022/08/20 02:11:30;;;;;;;0.00;0.00;;;17.30;99.90;226.50;231333.00;;;;5051164;28;20210;-75
2022/08/20 02:13:59;;;;;;;0.00;0.00;;;17.40;99.90;226.50;231333.00;;;;5052870;28;20559;-74
2022/08/20 02:16:33;;;;;;;0.00;0.00;;;17.50;99.90;226.50;231333.00;;;;5035571;28;20214;-74
2022/08/20 02:19:08;;;;;;;0.00;0.00;;;17.50;99.90;226.50;231333.00;;;;5049260;28;20665;-74
2022/08/20 02:21:42;;;;;;;0.00;0.00;;;17.50;99.90;226.50;231333.00;;;;5044566;28;20256;-76
2022/08/20 02:24:11;;;;;;;0.00;0.00;;;17.50;99.90;226.50;231333.00;;;;5032979;28;20213;-76
2022/08/20 02:26:41;;;;;;;0.00;0.00;;;17.50;99.90;226.50;231333.00;;;;5052636;28;20214;-76
2022/08/20 02:29:12;;;;;;;0.00;0.00;;;17.50;99.90;226.50;231333.00;;;;5051610;28;20198;-75
2022/08/20 02:31:43;;;;;;;0.00;0.00;;;17.60;99.90;226.50;231333.00;;;;5052150;28;20214;-75
2022/08/20 02:34:33;;;;;;;0.00;0.00;;;17.50;99.90;226.50;231333.00;;;;5052095;28;20784;-75
2022/08/20 02:37:03;;;;;;;0.00;0.00;;;17.60;99.90;226.50;231333.00;;;;5052729;28;20273;-75
2022/08/20 02:39:32;;;;;;;0.00;0.00;;;17.70;99.90;226.50;231333.00;;;;5035246;28;20199;-74
2022/08/20 02:42:02;;;;;;;0.00;0.00;;;17.80;99.90;226.50;231333.00;;;;5050995;28;20230;-74
2022/08/20 02:44:31;;;;;;;0.00;0.00;;;17.80;99.90;226.50;231333.00;;;;5052298;28;20649;-73
2022/08/20 02:46:59;;;;;;;0.00;0.00;;;17.80;99.90;226.50;231333.00;;;;5052305;28;20202;-73
2022/08/20 02:49:28;;;;;;;0.00;0.00;;;17.90;99.90;226.50;231333.00;;;;5051182;28;20320;-75
2022/08/20 02:51:56;;;;;;;0.00;0.00;;;17.90;99.90;226.50;231333.00;;;;5041895;28;20218;-74
2022/08/20 02:54:24;;;;;;;0.00;0.00;;;17.80;99.90;226.50;231333.00;;;;5033632;28;20551;-74
2022/08/20 02:56:52;;;;;;;0.00;0.00;;;17.90;99.90;226.50;231333.00;;;;5052221;28;20190;-74
2022/08/20 02:59:21;;;;;;;0.10;0.10;;;17.90;99.90;226.50;231333.00;;;;5046155;28;20653;-74
2022/08/20 03:01:51;;;;;;;0.00;0.00;;;17.80;99.90;226.50;231333.00;;;;5047295;28;20223;-74
2022/08/20 03:04:28;;;;;;;0.00;0.00;;;17.70;99.90;226.50;231333.00;;;;5034354;28;20222;-74
2022/08/20 03:06:56;;;;;;;0.00;0.00;;;17.70;99.90;226.50;231333.00;;;;5042117;28;20225;-74
2022/08/20 03:09:24;;;;;;;0.00;0.00;;;17.70;99.90;226.50;231333.00;;;;5047191;28;20187;-74
2022/08/20 03:11:53;;;;;;;0.10;0.10;;;17.70;99.90;226.50;231333.00;;;;5040437;28;20210;-73
2022/08/20 03:14:23;;;;;;;0.00;0.00;;;17.70;99.90;226.50;231333.00;;;;5033484;28;20227;-72
2022/08/20 03:16:51;;;;;;;0.00;0.00;;;17.70;99.90;226.50;231333.00;;;;5040672;28;20268;-72
2022/08/20 03:19:19;;;;;;;0.00;0.00;;;17.70;99.90;226.50;231333.00;;;;5051063;28;20723;-72
2022/08/20 03:21:47;;;;;;;0.10;0.10;;;17.60;99.90;226.50;231333.00;;;;5041113;28;20756;-74
2022/08/20 03:24:15;;;;;;;0.00;0.00;;;17.60;99.90;226.50;231333.00;;;;5031129;28;20203;-73
2022/08/20 03:26:43;;;;;;;0.00;0.00;;;17.60;99.90;226.50;231333.00;;;;5031285;28;20226;-73
2022/08/20 03:29:12;;;;;;;0.00;0.00;;;17.60;99.90;226.50;231333.00;;;;5048440;28;20252;-72
2022/08/20 03:31:41;;;;;;;0.00;0.00;;;17.50;99.90;226.50;231333.00;;;;5042420;28;20218;-74
2022/08/20 03:34:09;;;;;;;0.00;0.00;;;17.60;99.90;226.50;231333.00;;;;5031640;28;20784;-73
2022/08/20 03:36:38;;;;;;;0.00;0.00;;;17.60;99.90;226.50;231333.00;;;;5051148;28;20217;-73
2022/08/20 03:39:10;;;;;;;0.00;0.00;;;17.70;99.90;226.50;231333.00;;;;5041757;28;20187;-74
2022/08/20 03:41:38;;;;;;;0.00;0.00;;;17.70;99.90;226.50;231333.00;;;;5050573;28;20222;-74
2022/08/20 03:44:06;;;;;;;0.00;0.00;;;17.70;99.90;226.50;231333.00;;;;5051394;28;20198;-74
2022/08/20 03:46:35;;;;;;;0.00;0.00;;;17.50;99.90;226.50;231333.00;;;;5050522;28;20728;-76
2022/08/20 03:49:05;;;;;;;0.00;0.00;;;17.40;99.90;226.50;231333.00;;;;5050440;28;20203;-76
2022/08/20 03:51:34;;;;;;;0.00;0.00;;;17.40;99.90;226.50;231333.00;;;;5045331;28;20214;-77
2022/08/20 03:54:22;;;;;;;0.00;0.00;;;17.40;99.90;226.50;231333.00;;;;5033116;28;20191;-77
2022/08/20 03:56:50;;;;;;;0.00;0.00;;;17.50;99.90;226.50;231333.00;;;;5051522;28;20207;-76
2022/08/20 03:59:18;;;;;;;0.00;0.00;;;17.60;99.90;226.50;231333.00;;;;5050465;28;20202;-77
2022/08/20 04:01:46;;;;;;;0.00;0.00;;;17.60;99.90;226.50;231333.00;;;;5047105;28;20221;-76
2022/08/20 04:04:15;;;;;;;0.00;0.00;;;17.50;99.90;226.50;231333.00;;;;5051281;28;20209;-77
2022/08/20 04:06:46;;;;;;;0.00;0.00;;;17.50;99.90;226.50;231333.00;;;;5050380;28;20253;-76
2022/08/20 04:09:17;;;;;;;0.00;0.00;;;17.60;99.90;226.50;231333.00;;;;5035751;28;20276;-76
2022/08/20 04:11:45;;;;;;;0.00;0.00;;;17.70;99.90;226.50;231333.00;;;;5040423;28;20225;-76
2022/08/20 04:14:13;;;;;;;0.00;0.00;;;17.70;99.90;226.50;231333.00;;;;5050793;28;20205;-76
2022/08/20 04:16:46;;;;;;;0.00;0.00;;;17.70;99.90;226.50;231333.00;;;;5049955;28;20204;-76
2022/08/20 04:19:17;;;;;;;0.10;0.10;;;17.80;99.90;226.50;231333.00;;;;5050893;28;20187;-76
2022/08/20 04:21:47;;;;;;;0.00;0.00;;;17.80;99.90;226.50;231333.00;;;;5042608;28;20705;-74
2022/08/20 04:24:15;;;;;;;0.00;0.00;;;17.80;99.90;226.50;231333.00;;;;5050655;28;20197;-75
2022/08/20 04:27:01;;;;;;;0.00;0.00;;;17.80;99.90;226.50;231333.00;;;;5050773;28;20232;-75
2022/08/20 04:29:29;;;;;;;0.00;0.00;;;17.70;99.90;226.50;231333.00;;;;5050066;28;20271;-76
2022/08/20 04:32:00;;;;;;;0.00;0.00;;;17.70;99.90;226.50;231333.00;;;;5050059;28;20210;-74
2022/08/20 04:34:35;;;;;;;0.00;0.00;;;17.60;99.90;226.50;231333.00;;;;5052895;28;20198;-76
2022/08/20 04:37:04;;;;;;;0.00;0.00;;;17.60;99.90;226.50;231333.00;;;;5054653;28;20197;-75
2022/08/20 04:39:32;;;;;;;0.00;0.00;;;17.60;99.90;226.50;231333.00;;;;5048230;28;20195;-76
2022/08/20 04:42:00;;;;;;;0.00;0.00;;;17.50;99.90;226.50;231333.00;;;;5045123;28;20222;-76
2022/08/20 04:44:28;;;;;;;0.00;0.00;;;17.50;99.90;226.50;231333.00;;;;5044324;28;20211;-76
2022/08/20 04:46:56;;;;;;;0.00;0.00;;;17.40;99.90;226.50;231333.00;;;;5054488;28;20222;-76
2022/08/20 04:49:25;;;;;;;0.00;0.00;;;17.40;99.90;226.50;231333.00;;;;5041341;28;20198;-77
2022/08/20 04:51:54;;;;;;;0.00;0.00;;;17.40;99.90;226.50;231333.00;;;;5053859;28;20747;-76
2022/08/20 04:54:22;;;;;;;0.00;0.00;;;17.40;99.90;226.50;231333.00;;;;5049017;28;20206;-75
2022/08/20 04:56:51;;;;;;;0.00;0.00;;;17.50;99.90;226.50;231333.00;;;;5019976;28;20214;-75
2022/08/20 04:59:19;;;;;;;0.00;0.00;;;17.50;99.90;226.50;231333.00;;;;5036172;28;20229;-75
2022/08/20 05:01:47;;;;;;;0.00;0.00;;;17.50;99.90;226.50;231333.00;;;;5054429;28;20615;-74
2022/08/20 05:04:15;;;;;;;0.00;0.00;;;17.60;99.90;226.50;231333.00;;;;5038401;28;20210;-77
2022/08/20 05:06:43;;;;;;;0.00;0.00;;;17.60;99.90;226.50;231333.00;;;;5054856;28;20214;-76
2022/08/20 05:09:12;;;;;;;0.00;0.00;;;17.50;99.90;226.50;231333.00;;;;5049099;28;20199;-76
2022/08/20 05:11:40;;;;;;;0.00;0.00;;;17.40;99.90;226.50;231333.00;;;;5042073;28;20219;-76
2022/08/20 05:14:09;;;;;;;0.00;0.00;;;17.40;99.90;226.50;231333.00;;;;5039414;28;20194;-76
2022/08/20 05:16:37;;;;;;;0.00;0.00;;;17.40;99.90;226.50;231333.00;;;;5059367;28;20689;-74
2022/08/20 05:19:07;;;;;;;0.00;0.00;;;17.50;99.90;226.50;231333.00;;;;5057739;28;20560;-75
2022/08/20 05:21:36;;;;;;;0.00;0.00;;;17.40;99.90;226.50;231333.00;;;;5053040;28;20215;-76
2022/08/20 05:24:05;;;;;;;0.00;0.00;;;17.40;99.90;226.50;231333.00;;;;5054821;28;20187;-76
2022/08/20 05:26:34;;;;;;;0.00;0.00;;;17.40;99.90;226.50;231333.00;;;;5055129;28;20210;-76
2022/08/20 05:29:05;;;;;;;0.00;0.00;;;17.40;99.90;226.50;231333.00;;;;5053815;28;20187;-76
2022/08/20 05:31:33;;;;;;;0.00;0.00;;;17.50;99.90;226.50;231333.00;;;;5047561;28;20215;-76
2022/08/20 05:34:05;;;;;;;0.00;0.00;;;17.50;99.90;226.50;231333.00;;;;5051167;28;20198;-75
2022/08/20 05:36:33;;;;;;;0.00;0.00;;;17.60;99.90;226.50;231333.00;;;;5053993;28;20198;-75
2022/08/20 05:39:01;;;;;;;0.00;0.00;;;17.50;99.90;226.50;231333.00;;;;5052546;28;20571;-74
2022/08/20 05:41:29;;;;;;;0.00;0.00;;;17.40;99.90;226.50;231333.00;;;;5052785;28;20214;-73
2022/08/20 05:44:00;;;;;;;0.00;0.00;;;17.40;99.90;226.50;231333.00;;;;5053589;28;20217;-73
2022/08/20 05:46:30;;;;;;;0.00;0.00;;;17.40;99.90;226.50;231333.00;;;;5052034;28;20231;-75
2022/08/20 05:49:00;;;;;;;0.00;0.00;;;17.40;99.90;226.50;231333.00;;;;5044189;28;20557;-76
2022/08/20 05:51:28;;;;;;;0.00;0.00;;;17.40;99.90;226.50;231333.00;;;;5045962;28;20319;-75
2022/08/20 05:53:56;;;;;;;0.00;0.00;;;17.30;99.90;226.50;231333.00;;;;5033539;28;20208;-76
2022/08/20 05:56:29;;;;;;;0.00;0.00;;;17.40;99.90;226.50;231333.00;;;;5043667;28;20252;-77
2022/08/20 05:59:02;;;;;;;0.00;0.00;;;17.30;99.90;226.50;231333.00;;;;5038742;28;20546;-76
2022/08/20 06:01:32;;;;;;;0.00;0.00;;;17.30;99.90;226.50;231333.00;;;;5046239;28;20233;-76
2022/08/20 06:06:47;;;;;;;0.00;0.00;;;17.40;99.90;226.50;231333.00;;;;5052749;28;20564;-76
2022/08/20 06:09:18;;;;;;;0.00;0.00;;;17.40;99.90;226.50;231333.00;;;;5051912;28;20658;-76
2022/08/20 06:12:01;;;;;;;0.00;0.00;;;17.40;99.90;226.50;231333.00;;;;5033331;28;20910;-76
2022/08/20 06:14:32;;;;;;;0.00;0.00;;;17.40;99.90;226.50;231333.00;;;;5035606;28;20314;-76
2022/08/20 06:17:10;;;;;;;0.00;0.00;;;17.40;99.90;226.50;231333.00;;;;5048180;28;20207;-75
2022/08/20 06:19:41;;;;;;;0.00;0.00;;;17.40;99.90;226.50;231333.00;;;;5036884;28;20190;-76
2022/08/20 06:22:13;;;;;;;0.00;0.00;;;17.50;99.90;226.50;231333.00;;;;5051155;28;20226;-75
2022/08/20 06:24:49;;;;;;;0.00;0.00;;;17.50;99.90;226.50;231333.00;;;;5043794;28;20222;-73
2022/08/20 06:27:18;;;;;;;0.00;0.00;;;17.50;99.90;226.50;231333.00;;;;5047861;28;20708;-76
2022/08/20 06:29:48;;;;;;;0.00;0.00;;;17.50;99.90;226.50;231333.00;;;;5052702;28;20657;-76
2022/08/20 06:32:17;;;;;;;0.10;0.10;;;17.50;99.90;226.50;231333.00;;;;5048626;28;20235;-76
2022/08/20 06:34:45;;;;;;;0.00;0.00;;;17.50;99.90;226.50;231333.00;;;;5036874;28;20748;-75
2022/08/20 06:37:20;;;;;;;0.00;0.00;;;17.60;99.90;226.50;231333.00;;;;5052381;28;20240;-74
2022/08/20 06:39:49;;;;;;;0.00;0.00;;;17.60;99.90;226.50;231333.00;;;;5052523;28;20677;-76
2022/08/20 06:42:18;;;;;;;0.00;0.00;;;17.60;99.90;226.50;231333.00;;;;5049764;28;20222;-75
2022/08/20 06:44:50;;;;;;;0.00;0.00;;;17.50;99.90;226.50;231333.00;;;;5043148;28;20203;-73
2022/08/20 06:47:20;;;;;;;0.00;0.00;;;17.50;99.90;226.50;231333.00;;;;5045377;28;20574;-74
2022/08/20 06:49:48;;;;;;;0.00;0.00;;;17.40;99.90;226.50;231333.00;;;;5037677;28;20198;-74
2022/08/20 06:52:17;;;;;;;0.00;0.00;;;17.40;99.90;226.50;231333.00;;;;5038261;28;20230;-74
2022/08/20 06:54:45;;;;;;;0.00;0.00;;;17.40;99.90;226.50;231333.00;;;;5037342;28;20194;-74
2022/08/20 06:57:16;;;;;;;0.00;0.00;;;17.30;99.90;226.50;231333.00;;;;5053398;28;20201;-75
2022/08/20 06:59:43;;;;;;;0.00;0.00;;;17.40;99.90;226.50;231333.00;;;;5053703;28;20198;-74
2022/08/20 07:02:22;;;;;;;0.00;0.00;;;17.40;99.90;226.50;231333.00;;;;5034978;28;20232;-74
2022/08/20 07:04:57;;;;;;;0.00;0.00;;;17.40;99.90;226.50;231333.00;;;;5031778;28;20198;-74
2022/08/20 07:07:25;;;;;;;0.00;0.00;;;17.40;99.90;226.50;231333.00;;;;5047135;28;20696;-74
2022/08/20 07:10:00;;;;;;;0.00;0.00;;;17.50;99.90;226.50;231333.00;;;;5051890;28;20704;-74
2022/08/20 07:12:28;;;;;;;0.00;0.00;;;17.50;99.90;226.50;231333.00;;;;5049437;28;20229;-74
2022/08/20 07:14:56;;;;;;;0.00;0.00;;;17.50;99.90;226.50;231333.00;;;;5038881;28;20194;-75
2022/08/20 07:17:25;;;;;;;0.00;0.00;;;17.60;99.90;226.50;231333.00;;;;5034372;28;20218;-74
2022/08/20 07:19:53;;;;;;;0.00;0.00;;;17.60;99.90;226.50;231333.00;;;;5042390;28;20209;-74
2022/08/20 07:22:21;;;;;;;0.00;0.00;;;17.60;99.90;226.50;231333.00;;;;5034307;28;20230;-74
2022/08/20 07:24:50;;;;;;;0.00;0.00;;;17.70;99.90;226.50;231333.00;;;;5048705;28;20208;-74
2022/08/20 07:27:22;;;;;;;0.00;0.00;;;17.70;99.90;226.50;231333.00;;;;5032419;28;20218;-74
2022/08/20 07:32:44;;;;;;;0.00;0.00;;;17.70;99.90;226.50;231333.00;;;;5051852;28;20196;-74
2022/08/20 07:35:17;;;;;;;0.00;0.00;;;17.70;99.90;226.50;231333.00;;;;5051570;28;20198;-74
2022/08/20 07:37:47;;;;;;;0.00;0.00;;;17.70;99.90;226.50;231333.00;;;;5051876;28;20194;-74
2022/08/20 07:40:19;;;;;;;0.00;0.00;;;17.80;99.90;226.50;231333.00;;;;5045814;28;20194;-74
2022/08/20 07:42:54;;;;;;;0.00;0.00;;;17.70;99.90;226.50;231333.00;;;;5044427;28;20693;-74
2022/08/20 07:45:25;;;;;;;0.00;0.00;;;17.70;99.90;226.50;231333.00;;;;5041832;28;20195;-74
2022/08/20 07:48:05;;;;;;;0.00;0.00;;;17.80;99.90;226.50;231333.00;;;;5051513;28;20256;-74
2022/08/20 07:50:33;;;;;;;0.00;0.00;;;17.90;99.90;226.50;231333.00;;;;5044827;28;20214;-74
2022/08/20 07:53:01;;;;;;;0.00;0.00;;;17.90;99.90;226.50;231333.00;;;;5048802;28;20186;-74
2022/08/20 07:55:29;;;;;;;0.00;0.00;;;17.90;99.90;226.50;231333.00;;;;5064334;22;20229;-75
2022/08/20 07:58:08;;;;;;;0.00;0.00;;;18.00;99.90;226.50;231333.00;;;;5051254;28;20218;-75
2022/08/20 08:00:38;;;;;;;0.00;0.00;;;18.00;99.90;226.50;231333.00;;;;5051555;28;20202;-74
2022/08/20 08:03:08;;;;;;;0.00;0.00;;;18.10;99.90;226.50;231333.00;;;;5051750;28;20680;-74
2022/08/20 08:05:40;;;;;;;0.00;0.00;;;18.10;99.90;226.50;231333.00;;;;5067898;28;20217;-75
2022/08/20 08:08:11;;;;;;;0.00;0.00;;;18.10;99.90;226.50;231333.00;;;;5071323;28;20726;-74
2022/08/20 08:10:42;;;;;;;0.00;0.00;;;18.00;99.90;226.50;231333.00;;;;5066089;28;20660;-75
2022/08/20 08:13:14;;;;;;;0.00;0.00;;;18.00;99.90;226.50;231333.00;;;;5075843;28;20745;-75
2022/08/20 08:15:49;;;;;;;0.00;0.00;;;17.90;99.90;226.50;231333.00;;;;5075571;28;20221;-74
2022/08/20 08:18:26;;;;;;;0.00;0.00;;;18.00;99.90;226.50;231333.00;;;;5073276;28;20268;-74
2022/08/20 08:20:59;;;;;;;0.00;0.00;;;18.00;99.90;226.50;231333.00;;;;5074843;28;20228;-76
2022/08/20 08:23:28;;;;;;;0.00;0.00;;;18.00;99.90;226.50;231333.00;;;;5065825;28;20648;-75
2022/08/20 08:25:59;;;;;;;0.10;0.10;;;18.00;99.90;226.50;231333.00;;;;5067457;28;20202;-75
2022/08/20 08:28:28;;;;;;;0.00;0.00;;;18.00;99.90;226.50;231333.00;;;;5063456;28;20226;-76
2022/08/20 08:30:57;;;;;;;0.00;0.00;;;18.00;99.90;226.50;231333.00;;;;5059645;28;20680;-75
2022/08/20 08:33:31;;;;;;;0.00;0.00;;;17.90;99.90;226.50;231333.00;;;;5039750;28;20202;-74
2022/08/20 08:36:02;;;;;;;0.00;0.00;;;18.00;99.90;226.50;231333.00;;;;5064328;28;20209;-75
2022/08/20 08:38:33;;;;;;;0.00;0.00;;;17.90;99.90;226.50;231333.00;;;;5077979;28;20205;-75
2022/08/20 08:41:15;;;;;;;0.00;0.00;;;17.90;99.90;226.50;231333.00;;;;5072330;28;20216;-75
2022/08/20 08:43:46;;;;;;;0.00;0.00;;;18.00;99.90;226.50;231333.00;;;;5065245;28;20190;-75
2022/08/20 08:46:21;;;;;;;0.00;0.00;;;18.00;99.90;226.50;231333.00;;;;5065193;28;20206;-75
2022/08/20 08:48:57;;;;;;;0.00;0.00;;;18.00;99.90;226.50;231333.00;;;;5070985;28;20316;-75
2022/08/20 08:51:35;;;;;;;0.00;0.00;;;18.00;99.90;226.50;231333.00;;;;5058034;28;20194;-75
2022/08/20 08:54:04;;;;;;;0.00;0.00;;;18.10;99.90;226.50;231333.00;;;;5062549;28;20597;-75
2022/08/20 08:56:35;;;;;;;0.00;0.00;;;18.10;99.90;226.50;231333.00;;;;5061617;28;20194;-75
2022/08/20 08:59:06;;;;;;;0.10;0.10;;;18.20;99.90;226.50;231333.00;;;;5069502;28;20208;-75
2022/08/20 09:01:45;;;;;;;0.00;0.00;;;18.30;99.90;226.50;231333.00;;;;5060598;28;20213;-75
2022/08/20 09:04:30;;;;;;;0.00;0.00;;;18.40;99.90;226.50;231333.00;;;;5070671;28;20581;-76
2022/08/20 09:07:02;;;;;;;0.00;0.00;;;18.50;99.90;226.50;231333.00;;;;5073133;28;20280;-75
2022/08/20 09:09:36;;;;;;;0.00;0.00;;;18.60;99.90;226.50;231333.00;;;;5059332;28;20241;-77
2022/08/20 09:12:08;;;;;;;0.00;0.00;;;18.60;99.90;226.50;231333.00;;;;5054462;28;20255;-78
2022/08/20 09:14:38;;;;;;;0.00;0.00;;;18.70;99.90;226.50;231333.00;;;;5066125;28;20746;-77
2022/08/20 09:17:07;;;;;;;0.00;0.00;;;18.60;99.90;226.50;231333.00;;;;5078859;28;20189;-77
2022/08/20 09:19:37;;;;;;;0.00;0.00;;;18.60;99.90;226.50;231333.00;;;;5072568;28;20195;-78
2022/08/20 09:22:09;;;;;;;0.00;0.00;;;18.70;99.90;226.50;231333.00;;;;5065883;28;20193;-78
2022/08/20 09:24:37;;;;;;;0.00;0.00;;;18.70;99.90;226.50;231333.00;;;;5067357;28;20278;-79
2022/08/20 09:27:07;;;;;;;0.00;0.00;;;18.80;99.90;226.50;231333.00;;;;5058125;28;20194;-78
2022/08/20 09:29:35;;;;;;;0.00;0.00;;;18.90;99.90;226.50;231333.00;;;;5057973;28;20236;-78
2022/08/20 09:32:06;;;;;;;0.00;0.00;;;18.70;99.90;226.50;231333.00;;;;5068141;28;20252;-78
2022/08/20 09:34:39;;;;;;;0.00;0.00;;;18.70;99.90;226.50;231333.00;;;;5058784;28;20218;-78
2022/08/20 09:37:08;;;;;;;0.00;0.00;;;18.60;99.90;226.50;231333.00;;;;5055115;28;20203;-77
2022/08/20 09:39:37;;;;;;;0.00;0.00;;;18.60;99.90;226.50;231333.00;;;;5060832;28;20289;-76
2022/08/20 09:42:10;;;;;;;0.00;0.00;;;18.60;99.90;226.50;231333.00;;;;5072539;28;20186;-77
2022/08/20 09:44:39;;;;;;;0.00;0.00;;;18.60;99.90;226.50;231333.00;;;;5066032;28;20245;-78
2022/08/20 09:47:07;;;;;;;0.00;0.00;;;18.70;99.90;226.50;231333.00;;;;5070866;28;20208;-74
2022/08/20 09:49:36;;;;;;;0.00;0.00;;;18.80;99.90;226.50;231333.00;;;;5064845;28;20221;-78
2022/08/20 09:52:20;;;;;;;0.00;0.00;;;18.80;99.90;226.50;231333.00;;;;5076088;28;20525;-79
2022/08/20 09:54:50;;;;;;;0.00;0.00;;;18.90;99.90;226.50;231333.00;;;;5070322;28;20708;-79
2022/08/20 09:57:18;;;;;;;0.00;0.00;;;18.90;99.90;226.50;231333.00;;;;5057190;28;20217;-81
2022/08/20 09:59:52;;;;;;;0.00;0.00;;;18.90;99.90;226.50;231333.00;;;;5059673;28;20198;-78
2022/08/20 10:02:24;;;;;;;0.00;0.00;;;18.90;99.90;226.50;231333.00;;;;5074523;28;20193;-81
2022/08/20 10:04:52;;;;;;;0.00;0.00;;;19.00;99.90;226.50;231333.00;;;;5080390;28;20244;-82
2022/08/20 10:07:22;;;;;;;0.00;0.00;;;18.90;99.90;226.50;231333.00;;;;5082434;28;20196;-79
2022/08/20 10:09:50;;;;;;;0.00;0.00;;;19.00;99.90;226.50;231333.00;;;;5069622;28;20226;-79
2022/08/20 10:12:18;;;;;;;0.00;0.00;;;19.00;99.90;226.50;231333.00;;;;5055336;28;20212;-79
2022/08/20 10:14:46;;;;;;;0.00;0.00;;;19.00;99.90;226.50;231333.00;;;;5072576;28;20558;-80
2022/08/20 10:17:14;;;;;;;0.00;0.00;;;19.00;99.90;226.50;231333.00;;;;5074018;28;20545;-80
2022/08/20 10:19:42;;;;;;;0.00;0.00;;;19.00;99.90;226.50;231333.00;;;;5068156;28;20660;-78
2022/08/20 10:22:10;;;;;;;0.00;0.00;;;19.10;99.90;226.50;231333.00;;;;5075097;28;20178;-79
2022/08/20 10:24:40;;;;;;;0.00;0.00;;;19.10;99.90;226.50;231333.00;;;;5072279;28;20226;-79
2022/08/20 10:27:08;;;;;;;0.00;0.00;;;19.10;99.90;226.50;231333.00;;;;5054009;28;20213;-79
2022/08/20 10:29:36;;;;;;;0.00;0.00;;;19.20;99.90;226.50;231333.00;;;;5055357;28;20318;-79
2022/08/20 10:32:11;;;;;;;0.00;0.00;;;19.20;99.90;226.50;231333.00;;;;5058732;28;20178;-79
2022/08/20 10:34:40;;;;;;;0.00;0.00;;;19.10;99.90;226.50;231333.00;;;;5070363;28;20221;-79
2022/08/20 10:37:10;;;;;;;0.00;0.00;;;19.00;99.90;226.50;231333.00;;;;5079586;28;20197;-79
2022/08/20 10:39:39;;;;;;;0.00;0.00;;;19.00;99.90;226.50;231333.00;;;;5076444;28;20573;-79
2022/08/20 10:42:08;;;;;;;0.00;0.00;;;19.00;99.90;226.50;231333.00;;;;5074501;28;20194;-79
2022/08/20 10:44:35;;;;;;;0.00;0.00;;;19.00;99.90;226.50;231333.00;;;;5057208;28;20218;-79
2022/08/20 10:47:22;;;;;;;0.00;0.00;;;19.20;99.90;226.50;231333.00;;;;5074019;28;20186;-79
2022/08/20 10:49:53;;;;;;;0.00;0.00;;;19.10;99.90;226.50;231333.00;;;;5073124;28;20766;-79
2022/08/20 10:52:22;;;;;;;0.00;0.00;;;19.10;99.90;226.50;231333.00;;;;5073046;28;20197;-79
2022/08/20 10:54:52;;;;;;;0.00;0.00;;;19.10;99.90;226.50;231333.00;;;;5072631;28;20773;-79
2022/08/20 10:57:24;;;;;;;0.00;0.00;;;19.20;99.90;226.50;231333.00;;;;5072808;28;20189;-79
2022/08/20 10:59:55;;;;;;;0.00;0.00;;;19.30;99.90;226.50;231333.00;;;;5072024;28;20566;-80
2022/08/20 11:02:26;;;;;;;0.00;0.00;;;19.50;99.90;226.50;231333.00;;;;5073017;28;20198;-78
2022/08/20 11:04:54;;;;;;;0.00;0.00;;;19.60;99.90;226.50;231333.00;;;;5067666;28;20297;-79